Aérodrome :
LOGIN :

S'inscrire | Disclaimer

   EN    FR    IT 

 










Légende :    VFR   VFR Marginal   IFR   IFR Intensif   IFR Très Intensif
Visi : 
Plafond : 
>= 8 km
>= 3000ft
5 à 8 km
1000 à 3000 ft
1500m à 5 km
500 à 1000 ft
800 à 1500m
200 à 500 ft
< 800m
< 200 ft
Symboles :   Orages  Brouillard  Fortes neiges  Fortes précipitations  Vent > 20 kt
SIGMETs :   Divers  Orages  Givrage  Turbulence  Onde Orograph.  Cendres Volcan.






- Altitude de l'aérodrome : 295 ft
- Code IATA : BWE


EDVE - Braunschweig

DERNIER METAR :
  • 021520Z 09006KT 7000 FEW014 OVC019 02/M01 Q1015

METARs EXPIRÉS :
  • 021450Z 10004KT 9000 OVC020 02/M01 Q1015
  • 021420Z 10005KT 9999 BKN021 03/M00 Q1016
  • 021350Z 09003KT 9999 BKN022 03/M01 Q1016
  • 021320Z 14003KT 9999 FEW023 03/M01 Q1016
  • 021250Z 16002KT 9999 FEW023 04/M01 Q1016
  • 021220Z 13005KT 9999 SCT021 03/M01 Q1017

TAF TAF EDVE
Valide du 02 à 15h jusqu'au 02 à 21h UTC


021400Z 0215/0221 14003KT 9999 BKN025
BECMG 0218/0220 3500 BR



MET'MAP, la Météo Aéronautique d'un coup d'oeil ! - Copyright ORBIFLY Décembre 2007 - Disclaimer

ORBIFLY MET'MAP TEAM :

Programmation & Développement : Alexandra Zaïnal
Sur une idée originale de : Baudouin d'Aumeries
Assistance à la programmation : Marc-Olivier Méhu
Soutien technique & logistique : Manuel Goepfert

Contact : metmap@orbifly.com




SOURCES & CREDITS :

   NOAA